LFOP/URO METAR and TAF weather

Enter ICAO airport designator
Station Type Date Time Source
LFOP METAR 2020/04/05 07:00 UTC NOAA

LFOP 050700Z AUTO 11007KT CAVOK 09/02 Q1017


Station Type Date Time Source
LFOP Decoded METAR 2020/04/05 07:00 UTC NOAA

Rouen, France (LFOP) 49-23N 001-11E 157M
Apr 05, 2020 - 03:00 AM EDT / 2020.04.05 0700 UTC
Wind: from the ESE (110 degrees) at 8 MPH (7 KT):0
Visibility: greater than 7 mile(s):0
Temperature: 48 F (9 C)
Dew Point: 35 F (2 C)
Relative Humidity: 61%
Pressure (altimeter): 30.03 in. Hg (1017 hPa)
ob: LFOP 050700Z AUTO 11007KT CAVOK 09/02 Q1017
cycle: 7

Station Type Date Time Source
LFOP TAF 2020/04/02 20:08 UTC NOAA

TAF LFOP 022000Z 0220/0318 CNL

Example: see airport list